Time;durP1;ratioP1;P1;durP2;ratioP2;P2;SDS_P1;SDS_P2;PMS_P1;PMS_P2;Temp;Humidity;BMP_temperature;BMP_pressure;BME280_temperature;BME280_humidity;BME280_pressure;Samples;Min_cycle;Max_cycle;Signal;HPM_P1;HPM_P2
2023/05/24 00:00:24;;;;;;;27.65;6.07;;;;;;;9.30;100.00;102360.63;4835805;29;20052;-76
2023/05/24 00:02:51;;;;;;;21.25;5.80;;;;;;;9.33;100.00;102354.56;4859077;29;20063;-75
2023/05/24 00:05:19;;;;;;;20.05;5.10;;;;;;;9.37;100.00;102353.81;4888264;29;20045;-74
2023/05/24 00:07:46;;;;;;;22.50;5.10;;;;;;;9.39;100.00;102348.59;4886220;29;20053;-74
2023/05/24 00:10:14;;;;;;;35.65;6.20;;;;;;;9.40;100.00;102345.13;4876668;29;20049;-74
2023/05/24 00:12:41;;;;;;;17.98;5.15;;;;;;;9.43;100.00;102339.94;4900443;29;20052;-74
2023/05/24 00:15:09;;;;;;;23.48;5.20;;;;;;;9.42;100.00;102340.81;4868153;29;20053;-74
2023/05/24 00:17:39;;;;;;;18.52;5.75;;;;;;;9.42;100.00;102343.44;4855836;29;20058;-74
2023/05/24 00:20:12;;;;;;;19.17;5.63;;;;;;;9.41;100.00;102331.13;4870130;29;20049;-74
2023/05/24 00:22:41;;;;;;;22.52;5.40;;;;;;;9.37;100.00;102330.13;4869466;29;20053;-74
2023/05/24 00:25:08;;;;;;;17.88;4.63;;;;;;;9.35;100.00;102332.69;4885657;29;20044;-74
2023/05/24 00:27:36;;;;;;;30.17;6.10;;;;;;;9.35;100.00;102331.81;4872001;29;20041;-75
2023/05/24 00:30:05;;;;;;;18.90;5.35;;;;;;;9.35;100.00;102321.28;4862982;29;20045;-76
2023/05/24 00:32:32;;;;;;;17.67;4.43;;;;;;;9.30;100.00;102315.91;4851191;29;20044;-73
2023/05/24 00:34:59;;;;;;;25.00;6.00;;;;;;;9.27;100.00;102320.16;4850116;29;20071;-74
2023/05/24 00:37:28;;;;;;;20.25;4.70;;;;;;;9.25;100.00;102314.84;4851722;29;20049;-74
2023/05/24 00:39:55;;;;;;;18.58;4.97;;;;;;;9.24;100.00;102318.31;4889720;29;20439;-74
2023/05/24 00:42:23;;;;;;;17.38;4.60;;;;;;;9.24;100.00;102320.94;4868095;29;20053;-74
2023/05/24 00:44:50;;;;;;;19.98;5.95;;;;;;;9.26;100.00;102319.28;4843067;29;20494;-74
2023/05/24 00:47:18;;;;;;;16.23;4.43;;;;;;;9.26;100.00;102319.28;4841781;29;20410;-74
2023/05/24 00:49:45;;;;;;;22.88;5.25;;;;;;;9.29;100.00;102323.75;4851504;29;20053;-74
2023/05/24 00:52:13;;;;;;;17.63;4.35;;;;;;;9.28;100.00;102314.97;4876756;29;20053;-73
2023/05/24 00:54:40;;;;;;;17.95;5.13;;;;;;;9.26;100.00;102321.91;4861607;29;20434;-75
2023/05/24 00:57:08;;;;;;;19.42;6.03;;;;;;;9.26;100.00;102324.53;4860042;29;20560;-76
2023/05/24 00:59:35;;;;;;;28.27;5.43;;;;;;;9.28;100.00;102325.47;4863918;29;20052;-74
2023/05/24 01:02:04;;;;;;;20.42;4.65;;;;;;;9.28;100.00;102328.13;4827417;29;20049;-76
2023/05/24 01:04:32;;;;;;;15.95;4.65;;;;;;;9.27;100.00;102339.47;4877027;29;20083;-73
2023/05/24 01:07:22;;;;;;;18.65;4.30;;;;;;;9.28;100.00;102320.22;4887332;29;20056;-74
2023/05/24 01:10:02;;;;;;;19.42;4.47;;;;;;;9.28;100.00;102325.47;4884933;29;20053;-74
2023/05/24 01:13:03;;;;;;;12.45;3.45;;;;;;;9.27;100.00;102320.16;4876893;29;20439;-74
2023/05/24 01:15:36;;;;;;;;;;;;;;;9.27;100.00;102323.69;4862464;29;20060;-75
2023/05/24 01:18:11;;;;;;;15.50;3.90;;;;;;;9.29;100.00;102323.75;4832677;29;19930;-75
2023/05/24 01:20:40;;;;;;;15.07;4.18;;;;;;;9.30;100.00;102323.78;4878523;29;20044;-74
2023/05/24 01:23:20;;;;;;;18.77;4.72;;;;;;;9.32;100.00;102318.59;4862930;29;20459;-75
2023/05/24 01:26:11;;;;;;;21.05;4.13;;;;;;;9.34;100.00;102322.16;4880415;29;20063;-75
2023/05/24 01:28:39;;;;;;;12.35;4.03;;;;;;;9.38;100.00;102321.41;4876809;29;20056;-75
2023/05/24 01:31:08;;;;;;;13.88;4.50;;;;;;;9.41;100.00;102323.22;4866845;29;20050;-74
2023/05/24 01:33:40;;;;;;;17.40;4.55;;;;;;;9.43;100.00;102318.91;4792316;29;20060;-75
2023/05/24 01:36:08;;;;;;;20.10;4.97;;;;;;;9.44;100.00;102321.59;4859321;29;20064;-75
2023/05/24 01:38:39;;;;;;;13.20;4.15;;;;;;;9.47;100.00;102320.78;4873903;29;20041;-75
2023/05/24 01:41:46;;;;;;;21.55;5.03;;;;;;;9.48;100.00;102319.94;4867059;29;20092;-75
2023/05/24 01:44:35;;;;;;;14.65;5.30;;;;;;;9.49;100.00;102316.47;4884344;29;20041;-74
2023/05/24 01:47:26;;;;;;;15.10;3.97;;;;;;;9.48;100.00;102309.44;4889021;29;20048;-74
2023/05/24 01:49:58;;;;;;;17.60;4.32;;;;;;;9.50;100.00;102315.63;4828879;29;20049;-75
2023/05/24 01:52:32;;;;;;;14.77;4.55;;;;;;;9.51;100.00;102307.78;4886355;29;20837;-75
2023/05/24 01:55:03;;;;;;;15.90;4.13;;;;;;;9.52;100.00;102300.78;4859261;29;20396;-74
2023/05/24 01:57:33;;;;;;;24.33;4.78;;;;;;;9.53;100.00;102307.84;4878815;29;20052;-75
2023/05/24 02:00:02;;;;;;;14.60;4.70;;;;;;;9.53;100.00;102303.47;4873137;29;20051;-75
2023/05/24 02:02:38;;;;;;;17.33;4.65;;;;;;;9.55;100.00;102308.78;4892646;29;20052;-75
2023/05/24 02:05:06;;;;;;;13.35;3.75;;;;;;;9.55;100.00;102308.78;4830476;29;20072;-74
2023/05/24 02:07:34;;;;;;;18.15;4.47;;;;;;;9.56;100.00;102302.66;4866887;29;20049;-75
2023/05/24 02:10:02;;;;;;;19.50;4.70;;;;;;;9.57;100.00;102301.81;4876732;29;20060;-74
2023/05/24 02:12:30;;;;;;;20.67;3.75;;;;;;;9.56;100.00;102298.31;4870186;29;20061;-75
2023/05/24 02:14:57;;;;;;;14.18;4.13;;;;;;;9.58;100.00;102295.69;4870947;29;20053;-73
2023/05/24 02:17:25;;;;;;;14.65;3.60;;;;;;;9.62;100.00;102300.22;4873126;29;20096;-74
2023/05/24 02:19:53;;;;;;;19.88;4.28;;;;;;;9.64;100.00;102297.63;4832051;29;20045;-74
2023/05/24 02:22:21;;;;;;;20.52;4.30;;;;;;;9.66;100.00;102301.19;4873365;29;20052;-74
2023/05/24 02:24:48;;;;;;;18.95;4.50;;;;;;;9.67;100.00;102295.09;4891033;29;20056;-74
2023/05/24 02:27:15;;;;;;;13.55;4.28;;;;;;;9.69;100.00;102293.38;4861505;29;20060;-74
2023/05/24 02:29:43;;;;;;;17.17;5.38;;;;;;;9.69;100.00;102290.75;4860482;29;20060;-74
2023/05/24 02:32:10;;;;;;;28.13;6.35;;;;;;;9.70;100.00;102296.06;4868832;29;20059;-74
2023/05/24 02:34:38;;;;;;;19.13;4.95;;;;;;;9.70;100.00;102290.81;4835888;29;20052;-74
2023/05/24 02:37:05;;;;;;;16.55;3.97;;;;;;;9.72;100.00;102296.13;4883092;29;20082;-74
2023/05/24 02:39:32;;;;;;;25.20;4.53;;;;;;;9.71;100.00;102289.94;4853716;29;20055;-74
2023/05/24 02:42:00;;;;;;;19.65;5.55;;;;;;;9.73;100.00;102292.63;4864031;29;20045;-73
2023/05/24 02:44:27;;;;;;;18.08;4.88;;;;;;;9.72;100.00;102291.75;4857608;29;20533;-74
2023/05/24 02:46:55;;;;;;;20.08;3.85;;;;;;;9.73;100.00;102295.25;4872089;29;20407;-74
2023/05/24 02:49:22;;;;;;;15.75;4.00;;;;;;;9.73;100.00;102288.28;4873942;29;20064;-73
2023/05/24 02:51:50;;;;;;;17.02;4.40;;;;;;;9.75;100.00;102296.19;4824977;29;20057;-74
2023/05/24 02:54:18;;;;;;;26.13;4.70;;;;;;;9.76;100.00;102303.25;4865935;29;20061;-73
2023/05/24 02:56:45;;;;;;;14.57;3.97;;;;;;;9.72;100.00;102299.63;4867483;29;20052;-74
2023/05/24 02:59:14;;;;;;;21.85;4.85;;;;;;;9.72;100.00;102285.59;4874630;29;20041;-74
2023/05/24 03:01:42;;;;;;;12.07;4.10;;;;;;;9.69;100.00;102294.28;4859888;29;20499;-74
2023/05/24 03:04:09;;;;;;;15.43;3.85;;;;;;;9.68;100.00;102300.41;4857349;29;20048;-74
2023/05/24 03:06:37;;;;;;;15.10;3.67;;;;;;;9.69;100.00;102289.00;4824992;29;20057;-74
2023/05/24 03:09:04;;;;;;;21.27;3.80;;;;;;;9.67;100.00;102293.34;4863953;29;20052;-74
2023/05/24 03:11:32;;;;;;;18.73;4.07;;;;;;;9.68;100.00;102295.13;4844253;29;20057;-74
2023/05/24 03:14:00;;;;;;;13.05;3.58;;;;;;;9.67;100.00;102288.06;4872250;29;20495;-73
2023/05/24 03:16:28;;;;;;;23.58;3.97;;;;;;;9.67;100.00;102292.44;4880622;29;20059;-74
2023/05/24 03:18:55;;;;;;;16.25;5.40;;;;;;;9.65;100.00;102286.25;4861482;29;20071;-74
2023/05/24 03:21:23;;;;;;;15.93;4.15;;;;;;;9.68;100.00;102292.50;4808036;29;20049;-74
2023/05/24 03:23:51;;;;;;;11.18;3.65;;;;;;;9.68;100.00;102289.88;4865253;29;20056;-74
2023/05/24 03:26:19;;;;;;;17.30;4.75;;;;;;;9.69;100.00;102281.13;4874507;29;20419;-74
2023/05/24 03:28:46;;;;;;;23.05;4.75;;;;;;;9.70;100.00;102275.00;4856250;29;20126;-74
2023/05/24 03:31:15;;;;;;;14.63;4.32;;;;;;;9.72;100.00;102286.47;4856702;29;20049;-74
2023/05/24 03:33:43;;;;;;;11.00;3.78;;;;;;;9.73;100.00;102282.09;4869830;29;20049;-75
2023/05/24 03:36:11;;;;;;;19.17;3.92;;;;;;;9.73;100.00;102272.50;4846722;29;20055;-74
2023/05/24 03:38:40;;;;;;;21.30;4.38;;;;;;;9.73;100.00;102272.50;4824180;29;20064;-74
2023/05/24 03:41:08;;;;;;;22.33;5.32;;;;;;;9.75;100.00;102268.16;4843957;29;20052;-74
2023/05/24 03:43:35;;;;;;;19.02;3.90;;;;;;;9.79;100.00;102270.84;4870378;29;20134;-76
2023/05/24 03:46:07;;;;;;;15.05;5.03;;;;;;;9.80;100.00;102278.81;4873456;29;20068;-75
2023/05/24 03:48:34;;;;;;;18.40;4.60;;;;;;;9.81;100.00;102271.78;4868666;29;20115;-75
2023/05/24 03:51:01;;;;;;;19.70;4.60;;;;;;;9.83;100.00;102281.53;4860020;29;20049;-75
2023/05/24 03:53:28;;;;;;;17.77;4.30;;;;;;;9.85;100.00;102273.66;4829047;29;20064;-75
2023/05/24 03:55:56;;;;;;;22.70;5.03;;;;;;;9.87;100.00;102264.97;4866055;29;20079;-74
2023/05/24 03:58:23;;;;;;;16.83;5.30;;;;;;;9.89;100.00;102265.03;4864666;29;20060;-75
2023/05/24 04:00:50;;;;;;;20.02;5.13;;;;;;;9.91;100.00;102265.97;4850687;29;20049;-75
2023/05/24 04:03:18;;;;;;;24.48;4.72;;;;;;;9.92;100.00;102267.72;4837884;29;20038;-75
2023/05/24 04:05:46;;;;;;;21.90;4.43;;;;;;;9.92;100.00;102273.00;4872734;29;20071;-75
2023/05/24 04:08:15;;;;;;;22.92;5.40;;;;;;;9.91;100.00;102273.84;4817936;29;20837;-74
2023/05/24 04:10:42;;;;;;;15.90;5.13;;;;;;;9.94;100.00;102276.56;4866895;29;20072;-75
2023/05/24 04:13:11;;;;;;;22.55;5.22;;;;;;;9.95;100.00;102278.38;4875681;29;20055;-75
2023/05/24 04:15:38;;;;;;;20.55;4.50;;;;;;;9.97;100.00;102281.94;4866140;29;20075;-75
2023/05/24 04:18:06;;;;;;;22.92;4.65;;;;;;;10.00;100.00;102294.28;4868974;29;20052;-75
2023/05/24 04:20:34;;;;;;;24.30;5.30;;;;;;;10.01;100.00;102294.31;4869391;29;20048;-75
2023/05/24 04:23:01;;;;;;;17.15;4.15;;;;;;;10.01;100.00;102296.06;4838937;29;20266;-75
2023/05/24 04:25:32;;;;;;;19.88;4.45;;;;;;;10.03;100.00;102303.16;4845807;29;20123;-75
2023/05/24 04:28:01;;;;;;;23.90;5.45;;;;;;;10.03;100.00;102307.53;4868051;29;20411;-75
2023/05/24 04:30:30;;;;;;;17.50;4.20;;;;;;;10.02;100.00;102305.75;4868538;29;20044;-75
2023/05/24 04:32:57;;;;;;;17.85;4.60;;;;;;;10.03;100.00;102303.16;4857274;29;20045;-75
2023/05/24 04:35:27;;;;;;;21.50;4.65;;;;;;;10.05;100.00;102309.38;4865866;29;20123;-74
2023/05/24 04:37:56;;;;;;;17.52;5.10;;;;;;;10.07;100.00;102298.88;4841730;29;20052;-75
2023/05/24 04:40:23;;;;;;;15.90;3.90;;;;;;;10.12;100.00;102302.53;4832207;29;20059;-75
2023/05/24 04:42:51;;;;;;;22.65;4.70;;;;;;;10.17;100.00;102300.94;4861474;29;20045;-75
2023/05/24 04:45:18;;;;;;;18.60;4.20;;;;;;;10.26;100.00;102306.44;4884609;29;20048;-74
2023/05/24 04:47:46;;;;;;;18.85;4.40;;;;;;;10.39;100.00;102305.06;4868171;29;20876;-75
2023/05/24 04:50:16;;;;;;;16.25;4.28;;;;;;;10.52;100.00;102298.41;4866345;29;20052;-75
2023/05/24 04:52:43;;;;;;;16.67;5.20;;;;;;;10.63;100.00;102312.75;4861540;29;20057;-74
2023/05/24 04:55:10;;;;;;;18.10;4.55;;;;;;;10.72;100.00;102306.84;4833370;29;20051;-74
2023/05/24 04:57:37;;;;;;;12.00;3.60;;;;;;;10.76;100.00;102311.34;4870658;29;20057;-74
2023/05/24 05:00:06;;;;;;;12.77;3.60;;;;;;;10.79;100.00;102313.16;4879822;29;20056;-74
2023/05/24 05:02:34;;;;;;;18.85;3.85;;;;;;;10.78;100.00;102312.25;4862134;29;20053;-75
2023/05/24 05:05:02;;;;;;;13.35;3.83;;;;;;;10.78;100.00;102312.25;4846760;29;20056;-74
2023/05/24 05:07:29;;;;;;;16.50;4.07;;;;;;;10.79;100.00;102327.22;4858491;29;20452;-75
2023/05/24 05:09:56;;;;;;;14.65;4.07;;;;;;;10.82;100.00;102319.41;4837818;29;20072;-76
2023/05/24 05:12:24;;;;;;;16.17;3.97;;;;;;;10.84;100.00;102330.88;4841949;29;20064;-77
2023/05/24 05:14:51;;;;;;;11.02;4.10;;;;;;;10.85;100.00;102322.13;4853777;29;20068;-77
2023/05/24 05:17:18;;;;;;;17.92;4.38;;;;;;;10.88;100.00;102323.94;4873473;29;20502;-76
2023/05/24 05:19:46;;;;;;;16.65;4.28;;;;;;;10.88;100.00;102326.56;4864929;29;20064;-76
2023/05/24 05:22:13;;;;;;;18.05;4.65;;;;;;;10.88;100.00;102322.19;4864483;29;20056;-76
2023/05/24 05:24:41;;;;;;;22.02;4.85;;;;;;;10.88;100.00;102334.47;4815632;29;20067;-77
2023/05/24 05:27:08;;;;;;;15.77;4.35;;;;;;;10.86;100.00;102329.16;4841329;29;20049;-76
2023/05/24 05:29:35;;;;;;;19.52;4.50;;;;;;;10.87;100.00;102324.81;4822688;29;20064;-76
2023/05/24 05:32:03;;;;;;;24.10;4.38;;;;;;;10.88;100.00;102331.84;4887261;29;20056;-77
2023/05/24 05:34:30;;;;;;;16.23;4.32;;;;;;;10.85;100.00;102337.94;4850202;29;20894;-76
2023/05/24 05:36:57;;;;;;;16.10;3.83;;;;;;;10.83;100.00;102337.03;4881636;29;20053;-76
2023/05/24 05:39:25;;;;;;;14.80;4.35;;;;;;;10.82;100.00;102339.59;4852640;29;20053;-76
2023/05/24 05:41:53;;;;;;;20.88;4.43;;;;;;;10.84;100.00;102333.50;4818819;29;20056;-75
2023/05/24 05:44:20;;;;;;;19.92;4.85;;;;;;;10.88;100.00;102329.22;4859762;29;20057;-75
2023/05/24 05:46:47;;;;;;;17.35;4.03;;;;;;;10.93;100.00;102338.13;4834171;29;20044;-76
2023/05/24 05:49:17;;;;;;;15.70;4.65;;;;;;;10.97;100.00;102339.13;4858474;29;20045;-76
2023/05/24 05:51:45;;;;;;;11.50;3.80;;;;;;;11.00;100.00;102329.53;4867937;29;20044;-75
2023/05/24 05:54:13;;;;;;;15.18;3.80;;;;;;;11.07;100.00;102331.44;4849610;29;20060;-75
2023/05/24 05:56:44;;;;;;;13.82;4.30;;;;;;;11.12;100.00;102334.22;4836600;29;20049;-76
2023/05/24 05:59:12;;;;;;;18.40;4.28;;;;;;;11.19;100.00;102335.25;4862135;29;20422;-75
2023/05/24 06:01:40;;;;;;;21.67;4.93;;;;;;;11.21;100.00;102339.72;4851187;29;20082;-75
2023/05/24 06:04:07;;;;;;;15.35;4.05;;;;;;;11.23;100.00;102342.41;4878024;29;20746;-75
2023/05/24 06:06:34;;;;;;;14.20;3.72;;;;;;;11.25;100.00;102344.22;4860563;29;20059;-75
2023/05/24 06:09:03;;;;;;;14.68;3.30;;;;;;;11.28;100.00;102339.00;4855380;29;20419;-75
2023/05/24 06:11:31;;;;;;;13.55;3.88;;;;;;;11.30;100.00;102334.69;4826070;29;21725;-75
2023/05/24 06:13:58;;;;;;;17.23;3.72;;;;;;;11.32;100.00;102337.31;4825012;29;20048;-75
2023/05/24 06:16:26;;;;;;;18.23;3.85;;;;;;;11.31;100.00;102341.72;4856352;29;20049;-75
2023/05/24 06:18:54;;;;;;;15.68;3.67;;;;;;;11.34;100.00;102340.88;4867163;29;20075;-77
2023/05/24 06:21:32;;;;;;;16.08;4.40;;;;;;;11.35;100.00;102352.34;4869076;29;20057;-77
2023/05/24 06:24:01;;;;;;;14.43;3.53;;;;;;;11.35;100.00;102344.44;4854596;29;20061;-76
2023/05/24 06:26:29;;;;;;;13.73;3.85;;;;;;;11.34;100.00;102340.00;4835806;29;20060;-76
2023/05/24 06:28:56;;;;;;;18.25;5.07;;;;;;;11.36;100.00;102338.28;4799699;29;20065;-77
2023/05/24 06:31:26;;;;;;;12.07;3.58;;;;;;;11.40;100.00;102340.13;4858977;29;20061;-77
2023/05/24 06:33:53;;;;;;;14.27;3.78;;;;;;;11.46;100.00;102330.63;4849930;29;20044;-76
2023/05/24 06:36:41;;;;;;;14.52;4.07;;;;;;;11.48;100.00;102343.88;4839797;29;20474;-76
2023/05/24 06:39:09;;;;;;;15.00;3.28;;;;;;;11.48;100.00;102352.69;4842393;29;20053;-76
2023/05/24 06:41:37;;;;;;;14.23;4.03;;;;;;;11.48;100.00;102355.31;4871204;29;20045;-77
2023/05/24 06:44:05;;;;;;;9.88;3.53;;;;;;;11.49;100.00;102343.91;4834139;29;20492;-76
2023/05/24 06:46:33;;;;;;;13.82;3.42;;;;;;;11.49;100.00;102356.19;4866877;29;20053;-77
2023/05/24 06:49:00;;;;;;;16.17;3.60;;;;;;;11.46;100.00;102358.78;4860853;29;20419;-77
2023/05/24 06:51:29;;;;;;;15.90;3.75;;;;;;;11.45;100.00;102360.50;4849830;29;20044;-76
2023/05/24 06:53:56;;;;;;;15.00;3.15;;;;;;;11.47;100.00;102363.19;4871302;29;20045;-76
2023/05/24 06:56:24;;;;;;;15.13;4.25;;;;;;;11.45;100.00;102357.88;4848867;29;20060;-76
2023/05/24 06:58:51;;;;;;;9.40;3.15;;;;;;;11.46;100.00;102359.66;4828376;29;20507;-76
2023/05/24 07:01:18;;;;;;;17.90;4.18;;;;;;;11.51;100.00;102360.69;4857210;29;20080;-76
2023/05/24 07:03:46;;;;;;;12.88;3.72;;;;;;;11.57;100.00;102369.56;4837281;29;20067;-76
2023/05/24 07:06:15;;;;;;;13.10;3.78;;;;;;;11.60;100.00;102367.91;4874413;29;20056;-75
2023/05/24 07:08:42;;;;;;;19.88;4.10;;;;;;;11.70;100.00;102371.66;4886780;29;20446;-75
2023/05/24 07:11:09;;;;;;;10.70;3.08;;;;;;;11.79;100.00;102366.56;4879693;29;20052;-75
2023/05/24 07:13:37;;;;;;;9.52;2.92;;;;;;;11.91;100.00;102368.66;4834380;29;20076;-75
2023/05/24 07:16:05;;;;;;;9.48;3.15;;;;;;;12.06;100.00;102379.56;4854727;29;20071;-76
2023/05/24 07:18:32;;;;;;;9.13;3.05;;;;;;;12.16;100.00;102366.53;4876937;29;20052;-74
2023/05/24 07:20:59;;;;;;;12.45;3.15;;;;;;;12.24;100.00;102372.84;4878944;29;20056;-75
2023/05/24 07:23:27;;;;;;;10.27;2.85;;;;;;;12.24;100.00;102370.22;4842899;29;20056;-76
2023/05/24 07:25:55;;;;;;;10.23;2.70;;;;;;;12.20;100.00;102374.53;4874898;29;20060;-77
2023/05/24 07:28:22;;;;;;;11.07;2.70;;;;;;;12.19;100.00;102379.78;4857017;29;20068;-75
2023/05/24 07:30:50;;;;;;;10.80;3.50;;;;;;;12.24;100.00;102379.03;4802469;29;20060;-76
2023/05/24 07:33:18;;;;;;;11.82;3.63;;;;;;;12.43;100.00;102382.06;4864856;29;20061;-76
2023/05/24 07:35:50;;;;;;;9.63;3.17;;;;;;;12.64;100.00;102376.28;4887882;29;20427;-76
2023/05/24 07:38:17;;;;;;;13.40;3.65;;;;;;;12.79;100.00;102386.28;4865455;29;20060;-76
2023/05/24 07:40:45;;;;;;;12.13;3.28;;;;;;;12.91;100.00;102385.59;4868715;29;20052;-76
2023/05/24 07:43:12;;;;;;;9.40;2.92;;;;;;;13.06;100.00;102377.94;4882913;29;20063;-74
2023/05/24 07:45:39;;;;;;;8.43;2.92;;;;;;;13.18;100.00;102378.16;4845076;29;20553;-75
2023/05/24 07:48:07;;;;;;;8.30;3.03;;;;;;;13.14;100.00;102381.63;4871974;29;20061;-75
2023/05/24 07:50:35;;;;;;;11.60;2.95;;;;;;;13.11;100.00;102385.97;4870621;29;20543;-75
2023/05/24 07:53:04;;;;;;;14.00;3.13;;;;;;;13.09;100.00;102385.03;4884458;29;20079;-77
2023/05/24 07:55:32;;;;;;;9.77;3.15;;;;;;;13.13;100.00;102384.22;4873932;29;20059;-75
2023/05/24 07:58:00;;;;;;;10.63;3.28;;;;;;;13.12;100.00;102385.06;4855181;29;20539;-75
2023/05/24 08:00:28;;;;;;;9.63;3.35;;;;;;;13.08;100.00;102392.09;4820791;29;20403;-75
2023/05/24 08:02:56;;;;;;;15.70;3.25;;;;;;;13.13;100.00;102386.88;4858679;29;20060;-77
2023/05/24 08:05:23;;;;;;;6.70;2.85;;;;;;;13.24;100.00;102396.78;4862563;29;20055;-77
2023/05/24 08:07:52;;;;;;;15.13;2.78;;;;;;;13.29;100.00;102396.88;4851925;29;20048;-77
2023/05/24 08:10:19;;;;;;;17.50;3.72;;;;;;;13.29;100.00;102398.59;4855058;29;20748;-76
2023/05/24 08:12:49;;;;;;;12.30;3.13;;;;;;;13.31;100.00;102404.84;4856839;29;20057;-76
2023/05/24 08:15:16;;;;;;;8.43;3.13;;;;;;;13.46;100.00;102391.88;4824080;29;20045;-75
2023/05/24 08:17:43;;;;;;;12.55;3.65;;;;;;;13.67;100.00;102390.41;4860905;29;20132;-77
2023/05/24 08:20:14;;;;;;;15.88;3.40;;;;;;;13.86;100.00;102397.78;4865151;29;20045;-76
2023/05/24 08:22:42;;;;;;;10.73;3.30;;;;;;;13.97;100.00;102388.22;4847841;29;20500;-76
2023/05/24 08:25:10;;;;;;;9.48;3.15;;;;;;;14.04;100.00;102403.34;4861702;29;20045;-76
2023/05/24 08:27:37;;;;;;;10.52;3.00;;;;;;;13.99;100.00;102402.38;4873011;29;20057;-76
2023/05/24 08:30:07;;;;;;;14.30;3.70;;;;;;;13.86;100.00;102396.91;4821222;29;20744;-77
2023/05/24 08:32:35;;;;;;;8.55;2.90;;;;;;;13.81;100.00;102402.13;4831770;29;20052;-76
2023/05/24 08:35:03;;;;;;;9.05;2.58;;;;;;;13.74;100.00;102402.88;4878716;29;20048;-75
2023/05/24 08:37:48;;;;;;;12.57;3.45;;;;;;;13.71;100.00;102398.44;4872900;29;20055;-75
2023/05/24 08:40:16;;;;;;;10.40;2.75;;;;;;;13.72;100.00;102394.91;4872919;29;20053;-76
2023/05/24 08:42:45;;;;;;;9.43;3.08;;;;;;;13.72;100.00;102405.50;4884430;29;20044;-77
2023/05/24 08:45:14;;;;;;;9.30;2.83;;;;;;;13.70;100.00;102404.59;4855695;29;20053;-75
2023/05/24 08:47:42;;;;;;;11.43;3.70;;;;;;;13.67;100.00;102406.31;4805644;29;20051;-77
2023/05/24 08:50:10;;;;;;;9.85;2.90;;;;;;;13.59;100.00;102424.72;4870751;29;20076;-77
2023/05/24 08:52:38;;;;;;;15.90;3.58;;;;;;;13.53;100.00;102422.00;4852888;29;20053;-76
2023/05/24 08:55:08;;;;;;;11.73;3.30;;;;;;;13.48;100.00;102421.00;4875142;29;20617;-76
2023/05/24 08:57:38;;;;;;;11.25;3.65;;;;;;;13.36;100.00;102421.72;4857192;29;20068;-77
2023/05/24 09:00:11;;;;;;;10.25;3.45;;;;;;;13.24;100.00;102423.25;4880022;29;20052;-76
2023/05/24 09:02:40;;;;;;;10.45;2.75;;;;;;;13.15;100.00;102436.31;4813039;29;20056;-76
2023/05/24 09:05:11;;;;;;;10.40;3.53;;;;;;;13.04;100.00;102432.59;4873025;29;20041;-76
2023/05/24 09:07:40;;;;;;;10.18;2.75;;;;;;;12.99;100.00;102426.34;4863102;29;20057;-76
2023/05/24 09:10:08;;;;;;;9.30;2.75;;;;;;;12.96;100.00;102437.72;4866076;29;20059;-76
2023/05/24 09:12:37;;;;;;;7.55;3.25;;;;;;;12.92;100.00;102438.53;4871830;29;20052;-76
2023/05/24 09:15:07;;;;;;;12.75;3.63;;;;;;;12.96;100.00;102429.78;4867652;29;20056;-76
2023/05/24 09:17:35;;;;;;;7.85;3.03;;;;;;;12.99;100.00;102436.94;4811419;29;20048;-76
2023/05/24 09:20:08;;;;;;;9.25;2.80;;;;;;;13.01;100.00;102433.44;4877781;29;20079;-76
2023/05/24 09:22:37;;;;;;;9.68;2.88;;;;;;;13.08;100.00;102442.38;4870874;29;20059;-77
2023/05/24 09:25:09;;;;;;;9.63;3.28;;;;;;;13.13;100.00;102432.75;4859892;29;20052;-76
2023/05/24 09:27:37;;;;;;;12.25;3.20;;;;;;;13.17;100.00;102433.69;4869260;29;20065;-76
2023/05/24 09:30:09;;;;;;;11.88;3.72;;;;;;;13.22;100.00;102434.69;4871558;29;20091;-76
2023/05/24 09:32:37;;;;;;;14.88;4.38;;;;;;;13.31;100.00;102434.88;4857354;29;20154;-76
2023/05/24 09:35:08;;;;;;;10.63;3.53;;;;;;;13.52;100.00;102433.47;4804831;29;20048;-76
2023/05/24 09:37:37;;;;;;;13.55;3.58;;;;;;;13.70;100.00;102432.84;4859464;29;20075;-76
2023/05/24 09:40:07;;;;;;;11.35;3.53;;;;;;;13.81;100.00;102420.66;4883094;29;20064;-76
2023/05/24 09:42:35;;;;;;;12.57;4.05;;;;;;;13.97;100.00;102422.66;4855588;29;20057;-76
2023/05/24 09:45:08;;;;;;;11.52;3.22;;;;;;;14.10;100.00;102422.81;4869045;29;20080;-76
2023/05/24 09:47:37;;;;;;;8.55;3.33;;;;;;;14.15;100.00;102431.75;4859949;29;20052;-76
2023/05/24 09:50:15;;;;;;;15.23;3.65;;;;;;;14.09;100.00;102423.72;4831654;29;20552;-75
2023/05/24 09:52:44;;;;;;;10.85;3.08;;;;;;;14.01;100.00;102428.91;4886448;29;20048;-77
2023/05/24 09:55:25;;;;;;;7.18;3.13;;;;;;;14.04;100.00;102428.94;4870074;29;20569;-76
2023/05/24 09:58:07;;;;;;;12.20;3.10;;;;;;;14.02;100.00;102431.56;4870322;29;20835;-75
2023/05/24 10:00:40;;;;;;;10.00;3.55;;;;;;;13.92;100.00;102427.00;4868669;29;20076;-75
2023/05/24 10:03:11;;;;;;;11.52;3.55;;;;;;;13.87;100.00;102431.34;4865967;29;20078;-76
2023/05/24 10:05:41;;;;;;;;;;;;;;;13.80;100.00;102437.44;4828044;29;20041;-75
2023/05/24 10:08:09;;;;;;;15.18;3.60;;;;;;;13.81;100.00;102428.59;4872257;29;19931;-75
2023/05/24 10:10:36;;;;;;;10.70;3.10;;;;;;;13.85;100.00;102427.78;4855505;29;20554;-76
2023/05/24 10:13:03;;;;;;;9.02;3.00;;;;;;;13.92;100.00;102424.34;4845804;29;20065;-76
2023/05/24 10:15:31;;;;;;;12.23;3.30;;;;;;;13.96;100.00;102426.19;4859562;29;20522;-74
2023/05/24 10:18:00;;;;;;;10.10;3.55;;;;;;;14.00;100.00;102420.03;4867426;29;20056;-75
2023/05/24 10:20:28;;;;;;;20.55;3.20;;;;;;;14.04;100.00;102429.84;4824251;29;20056;-75
2023/05/24 10:23:02;;;;;;;5.78;2.30;;;;;;;14.18;100.00;102415.88;4870691;29;20060;-75
2023/05/24 10:25:33;;;;;;;9.18;2.65;;;;;;;14.37;100.00;102415.25;4868162;29;20045;-75
2023/05/24 10:28:05;;;;;;;5.78;2.65;;;;;;;14.56;100.00;102416.34;4876819;29;20052;-76
2023/05/24 10:30:45;;;;;;;7.47;2.85;;;;;;;14.74;100.00;102420.13;4869730;29;20048;-74
2023/05/24 10:33:13;;;;;;;11.07;2.75;;;;;;;14.72;100.00;102427.16;4872744;29;20060;-74
2023/05/24 10:35:42;;;;;;;9.07;2.83;;;;;;;14.62;100.00;102426.19;4828299;29;20052;-76
2023/05/24 10:38:10;;;;;;;9.18;2.55;;;;;;;14.76;100.00;102427.25;4843537;29;20140;-75
2023/05/24 10:40:42;;;;;;;10.55;3.17;;;;;;;14.85;100.00;102422.91;4859661;29;20668;-75
2023/05/24 10:43:09;;;;;;;12.25;2.78;;;;;;;14.95;100.00;102430.97;4844033;29;20064;-74
2023/05/24 10:45:39;;;;;;;9.73;2.45;;;;;;;14.99;100.00;102423.94;4866242;29;20410;-74
2023/05/24 10:48:12;;;;;;;9.80;2.72;;;;;;;15.06;100.00;102430.19;4835883;29;20076;-74
2023/05/24 10:50:41;;;;;;;9.57;2.72;;;;;;;15.11;100.00;102434.66;4821111;29;20045;-74
2023/05/24 10:53:14;;;;;;;7.70;2.58;;;;;;;15.12;100.00;102425.84;4877717;29;20049;-74
2023/05/24 10:55:54;;;;;;;13.32;3.00;;;;;;;15.25;100.00;102420.63;4889580;29;20044;-74
2023/05/24 10:58:57;;;;;;;9.52;2.65;;;;;;;15.44;100.00;102437.59;4886958;29;20051;-77
2023/05/24 11:01:30;;;;;;;11.20;2.75;;;;;;;15.54;100.00;102429.72;4857673;29;20060;-74
2023/05/24 11:04:25;;;;;;;7.32;2.53;;;;;;;15.52;100.00;102435.91;4869272;29;20044;-74
2023/05/24 11:07:01;;;;;;;10.52;3.50;;;;;;;15.42;100.00;102444.69;4830717;29;20057;-74
2023/05/24 11:09:30;;;;;;;13.20;3.00;;;;;;;15.21;100.00;102439.19;4868148;29;20048;-74
2023/05/24 11:12:07;;;;;;;6.57;2.97;;;;;;;15.12;100.00;102449.75;4887177;29;20052;-74
2023/05/24 11:14:40;;;;;;;7.90;2.38;;;;;;;15.07;100.00;102440.81;4845208;29;20487;-75
2023/05/24 11:17:07;;;;;;;10.30;3.08;;;;;;;14.97;100.00;102447.81;4855760;29;20053;-76
2023/05/24 11:19:46;;;;;;;10.18;2.70;;;;;;;14.80;100.00;102444.06;4875010;29;20052;-76
2023/05/24 11:22:14;;;;;;;11.50;2.80;;;;;;;14.66;100.00;102449.22;4801226;29;20525;-77
2023/05/24 11:24:42;;;;;;;10.45;3.25;;;;;;;14.61;100.00;102448.25;4878418;29;20045;-74